Site contains unofficial IBTrACS data. Visit the IBTrACS Website to access archived data.

1887 Hurricane NOT_NAMED (1887226N16302)


IBTrACS version v04r00. Visit IBTrACS website for data access.
Please direct all questions to the IBTrACS Q and A forum

Storm track - Intensity - Wind Radii - Intensity Data - Source Data - All data

Summary Information

Storm ID 1887226N16302
Start Aug 14 00Z
Max Intensity 105 kt (Aug 20 06Z), 969 mb (Aug 20 18Z)
End Aug 24 00Z
ATCF IDs ,AL061887
Track status Best track data.

Storm track plot

Map of storm track

Intensity plots

Map of storm track

Radial wind information

No radial wind information for this storm


Position and Intensity Table

BASIN ISO_TIME_________ NATURE LAT LON WMO WIND WMO PRES USA WIND USA PRES MLC WIND MLC PRES
degrees north degrees east kts mb kts mb kts mb
NA 1887-08-14 00:00:00 TS 16.00 -58.20 30
NA 03:00:00 TS 16.25 -58.75 30
NA 06:00:00 TS 16.50 -59.30 30
NA 09:00:00 TS 16.75 -59.85 32
NA 12:00:00 TS 17.00 -59.93 35 35 35
NA 15:00:00 TS 17.37 -60.23 35 35
NA 18:00:00 TS 17.80 -60.60 35 35 35
NA 21:00:00 TS 18.25 -61.01 35 35
NA 1887-08-15 00:00:00 TS 18.70 -61.53 35 35 35
NA 03:00:00 TS 19.19 -62.11 35 35
NA 06:00:00 TS 19.70 -62.70 35 35 35
NA 09:00:00 TS 20.23 -63.29 35 37
NA 12:00:00 TS 20.73 -63.87 35 35 40
NA 15:00:00 TS 21.19 -64.43 37 45
NA 18:00:00 TS 21.60 -65.00 40 40 50
NA 21:00:00 TS 21.98 -65.59 40 52
NA 1887-08-16 00:00:00 TS 22.33 -66.17 40 40 55
NA 03:00:00 TS 22.69 -66.72 42 57
NA 06:00:00 TS 23.03 -67.27 45 45 60
NA 09:00:00 TS 23.39 -67.80 47 62
NA 12:00:00 TS 23.73 -68.33 50 50 65
NA 15:00:00 TS 24.05 -68.89 50 67
NA 18:00:00 TS 24.33 -69.43 50 50 70
NA 21:00:00 TS 24.60 -69.94 52 72
NA 1887-08-17 00:00:00 TS 24.87 -70.43 55 55 75
NA 03:00:00 TS 25.14 -70.93 57 77
NA 06:00:00 TS 25.40 -71.43 60 60 80
NA 09:00:00 TS 25.63 -71.96 62 80
NA 12:00:00 TS 25.87 -72.50 65 65 80
NA 15:00:00 TS 26.13 -73.03 67 80
NA 18:00:00 TS 26.40 -73.53 70 70 80
NA 21:00:00 TS 26.65 -74.00 72 80
NA 1887-08-18 00:00:00 TS 26.90 -74.43 75 75 80
NA 03:00:00 TS 27.15 -74.83 77 80
NA 06:00:00 TS 27.40 -75.20 80 80 80
NA 09:00:00 TS 27.64 -75.59 82 82
NA 12:00:00 TS 27.90 -75.97 85 85 85
NA 15:00:00 TS 28.18 -76.33 87 87
NA 18:00:00 TS 28.47 -76.67 90 90 90
NA 21:00:00 TS 28.72 -76.98 90 90
NA 1887-08-19 00:00:00 TS 28.97 -77.27 90 90 90
NA 03:00:00 TS 29.20 -77.58 92 92
NA 06:00:00 TS 29.47 -77.83 95 95 95
NA 09:00:00 TS 29.80 -78.01 97 97
NA 12:00:00 TS 30.23 -78.10 100 100 100
NA 15:00:00 TS 30.78 -78.16 100 100
NA 18:00:00 TS 31.40 -78.10 100 100 100
NA 21:00:00 TS 32.03 -77.92 100 100
NA 1887-08-20 00:00:00 TS 32.63 -77.60 100 100 100
NA 03:00:00 TS 33.09 -77.22 102 102
NA 06:00:00 TS 33.57 -76.73 105 105 105
NA 09:00:00 TS 34.16 -76.23 105 105
NA 12:00:00 TS 34.87 -75.57 105 105 105
NA 15:00:00 TS 35.71 -74.66 105 105
NA 18:00:00 TS 36.60 -73.60 105 105 105 969
NA 21:00:00 TS 37.41 -72.53 102 102
NA 1887-08-21 00:00:00 TS 38.20 -71.37 100 100 100
NA 03:00:00 TS 39.05 -70.06 97 97
NA 06:00:00 TS 39.83 -68.70 95 95 95
NA 09:00:00 TS 40.46 -67.50 92 92
NA 12:00:00 TS 41.00 -66.17 90 90 90
NA 15:00:00 TS 41.52 -64.46 85 85
NA 18:00:00 TS 42.00 -62.57 80 80 80
NA 21:00:00 TS 42.45 -60.69 77 77
NA 1887-08-22 00:00:00 TS 42.87 -58.73 75 75 75 971
NA 03:00:00 TS 43.24 -56.69 72 72
NA 06:00:00 TS 43.60 -54.57 70 70 70
NA 09:00:00 TS 43.95 -52.32 70 70
NA 12:00:00 MX 44.33 -50.10 70 70 70
NA 15:00:00 MX 44.77 -48.06 72 72
NA 18:00:00 MX 45.27 -46.13 75 75 75
NA 21:00:00 MX 45.76 -44.22 72 72
NA 1887-08-23 00:00:00 ET 46.33 -42.37 70 70 70
NA 03:00:00 ET 47.01 -40.55 70 70
NA 06:00:00 ET 47.73 -38.73 70 70 70
NA 09:00:00 ET 48.36 -36.92 70 70
NA 12:00:00 ET 49.00 -34.96 70 972 70 972 70 972
NA 15:00:00 ET 49.64 -32.73 70 70
NA 18:00:00 ET 50.24 -30.42 70 70 70
NA 21:00:00 ET 50.51 -28.61 65
NA 1887-08-24 00:00:00 ET 51.00 -26.50 60

Source Information

Agency Information
USA hurdat2-1851-2019-042820.txt:Line=5665:UNNAMED
TOKYO
CMA
HKO
NEWDELHI
REUNION
BOM
NADI
WELLINGTON
DS824
TD9636
TD9635
NEUMANN
MLC

All available IBTrACS Data

SEASON BASIN SUBBASIN ISO_TIME_________ NATURE LAT LON WMO WIND WMO PRES WMO AGENCY DIST2LAND LANDFALL IFLAG USA AGENCY USA ATCF_ID USA LAT USA LON USA STATUS USA WIND USA PRES USA SSHS MLC LAT MLC LON MLC CLASS MLC WIND MLC PRES STORM SPEED STORM DIR
Year degrees north degrees east kts mb km km degrees north degrees east kts mb 1 degrees north degrees east kts mb kts degrees
1887 NA NA 1887-08-14 00:00:00 TS 16.00 -58.20 666 661 _____________O -1 16.00 -58.20 TD 30 12 295
1887 NA NA 03:00:00 TS 16.25 -58.75 674 663 _____________P -1 16.25 -58.75 TD 30 12 295
1887 NA NA 06:00:00 TS 16.50 -59.30 674 637 _____________O -1 16.50 -59.30 TD 30 12 295
1887 NA NA 09:00:00 TS 16.75 -59.85 627 618 _____________P -1 16.75 -59.85 TD 32 8 309
1887 NA NA 12:00:00 TS 17.00 -59.93 35 hurdat_atl 618 580 O____________O hurdat_atl AL061887 17.00 -59.00 TS 35 0 17.00 -60.40 TS 35 7 330
1887 NA NA 15:00:00 TS 17.37 -60.23 578 530 P____________P AL061887 17.50 -59.50 TS 35 0 17.24 -60.95 TS 35 10 321
1887 NA NA 18:00:00 TS 17.80 -60.60 35 hurdat_atl 530 485 O____________O hurdat_atl AL061887 18.00 -60.00 TS 35 0 17.50 -61.50 TS 35 12 320
1887 NA NA 21:00:00 TS 18.25 -61.01 485 432 P____________P AL061887 18.50 -60.49 TS 35 0 17.76 -62.05 TS 35 13 315
1887 NA NA 1887-08-15 00:00:00 TS 18.70 -61.53 35 hurdat_atl 433 379 O____________O hurdat_atl AL061887 19.00 -61.00 TS 35 0 18.10 -62.60 TS 35 14 312
1887 NA NA 03:00:00 TS 19.19 -62.11 379 337 P____________P AL061887 19.50 -61.59 TS 35 0 18.56 -63.15 TS 35 15 312
1887 NA NA 06:00:00 TS 19.70 -62.70 35 hurdat_atl 337 314 O____________O hurdat_atl AL061887 20.00 -62.20 TS 35 0 19.10 -63.70 TS 35 15 313
1887 NA NA 09:00:00 TS 20.23 -63.29 314 313 P____________P AL061887 20.51 -62.80 TS 35 0 19.65 -64.26 TS 37 15 313
1887 NA NA 12:00:00 TS 20.73 -63.87 35 hurdat_atl 312 312 O____________O hurdat_atl AL061887 21.00 -63.40 TS 35 0 20.20 -64.80 TS 40 14 312
1887 NA NA 15:00:00 TS 21.19 -64.43 337 333 P____________P AL061887 21.43 -64.00 TS 37 0 20.71 -65.30 TS 45 14 309
1887 NA NA 18:00:00 TS 21.60 -65.00 40 hurdat_atl 363 361 O____________O hurdat_atl AL061887 21.80 -64.60 TS 40 0 21.20 -65.80 TS 50 13 306
1887 NA NA 21:00:00 TS 21.98 -65.59 402 402 P____________P AL061887 22.12 -65.21 TS 40 0 21.69 -66.34 TS 52 13 304
1887 NA NA 1887-08-16 00:00:00 TS 22.33 -66.17 40 hurdat_atl 436 436 O____________O hurdat_atl AL061887 22.40 -65.80 TS 40 0 22.20 -66.90 TS 55 13 304
1887 NA NA 03:00:00 TS 22.69 -66.72 466 458 P____________P AL061887 22.66 -66.36 TS 42 0 22.74 -67.46 TS 57 12 305
1887 NA NA 06:00:00 TS 23.03 -67.27 45 hurdat_atl 462 462 O____________O hurdat_atl AL061887 22.90 -66.90 TS 45 0 23.30 -68.00 TS 60 12 305
1887 NA NA 09:00:00 TS 23.39 -67.80 481 477 P____________P AL061887 23.16 -67.45 TS 47 0 23.86 -68.50 TS 62 12 306
1887 NA NA 12:00:00 TS 23.73 -68.33 50 hurdat_atl 490 490 O____________O hurdat_atl AL061887 23.40 -68.00 TS 50 0 24.40 -69.00 HU 65 12 303
1887 NA NA 15:00:00 TS 24.05 -68.89 501 501 P____________P AL061887 23.61 -68.55 TS 50 0 24.92 -69.56 HU 67 12 301
1887 NA NA 18:00:00 TS 24.33 -69.43 50 hurdat_atl 506 493 O____________O hurdat_atl AL061887 23.80 -69.10 TS 50 0 25.40 -70.10 HU 70 11 300
1887 NA NA 21:00:00 TS 24.60 -69.94 495 482 P____________P AL061887 24.00 -69.65 TS 52 0 25.81 -70.52 HU 72 11 300
1887 NA NA 1887-08-17 00:00:00 TS 24.87 -70.43 55 hurdat_atl 491 480 O____________O hurdat_atl AL061887 24.20 -70.20 TS 55 0 26.20 -70.90 HU 75 10 301
1887 NA NA 03:00:00 TS 25.14 -70.93 485 485 P____________P AL061887 24.40 -70.74 TS 57 0 26.61 -71.30 HU 77 11 300
1887 NA NA 06:00:00 TS 25.40 -71.43 60 hurdat_atl 497 493 O____________O hurdat_atl AL061887 24.60 -71.30 TS 60 0 27.00 -71.70 HU 80 11 298
1887 NA NA 09:00:00 TS 25.63 -71.96 502 502 P____________P AL061887 24.79 -71.89 TS 62 0 27.32 -72.12 HU 80 11 296
1887 NA NA 12:00:00 TS 25.87 -72.50 65 hurdat_atl 527 504 O____________O hurdat_atl AL061887 25.00 -72.50 HU 65 1 27.60 -72.50 HU 80 11 297
1887 NA NA 15:00:00 TS 26.13 -73.03 504 470 P____________P AL061887 25.24 -73.16 HU 67 1 27.91 -72.77 HU 80 11 300
1887 NA NA 18:00:00 TS 26.40 -73.53 70 hurdat_atl 470 433 O____________O hurdat_atl AL061887 25.50 -73.80 HU 70 1 28.20 -73.00 HU 80 10 301
1887 NA NA 21:00:00 TS 26.65 -74.00 437 411 P____________P AL061887 25.75 -74.38 HU 72 1 28.46 -73.25 HU 80 9 302
1887 NA NA 1887-08-18 00:00:00 TS 26.90 -74.43 75 hurdat_atl 411 389 O____________O hurdat_atl AL061887 26.00 -74.90 HU 75 1 28.70 -73.50 HU 80 9 304
1887 NA NA 03:00:00 TS 27.15 -74.83 389 379 P____________P AL061887 26.25 -75.37 HU 77 1 28.95 -73.75 HU 80 8 306
1887 NA NA 06:00:00 TS 27.40 -75.20 80 hurdat_atl 379 367 O____________O hurdat_atl AL061887 26.50 -75.80 HU 80 1 29.20 -74.00 HU 80 8 306
1887 NA NA 09:00:00 TS 27.64 -75.59 367 366 P____________P AL061887 26.74 -76.26 HU 82 1 29.45 -74.25 HU 82 8 306
1887 NA NA 12:00:00 TS 27.90 -75.97 85 hurdat_atl 370 370 O____________O hurdat_atl AL061887 27.00 -76.70 HU 85 2 29.70 -74.50 HU 85 8 309
1887 NA NA 15:00:00 TS 28.18 -76.33 385 378 P____________P AL061887 27.30 -77.12 HU 87 2 29.95 -74.76 HU 87 8 313
1887 NA NA 18:00:00 TS 28.47 -76.67 90 hurdat_atl 370 342 O____________O hurdat_atl AL061887 27.60 -77.50 HU 90 2 30.20 -75.00 HU 90 8 313
1887 NA NA 21:00:00 TS 28.72 -76.98 342 316 P____________P AL061887 27.86 -77.87 HU 90 2 30.45 -75.20 HU 90 7 314
1887 NA NA 1887-08-19 00:00:00 TS 28.97 -77.27 90 hurdat_atl 316 292 O____________O hurdat_atl AL061887 28.10 -78.20 HU 90 2 30.70 -75.40 HU 90 7 312
1887 NA NA 03:00:00 TS 29.20 -77.58 292 280 P____________P AL061887 28.32 -78.54 HU 92 2 30.95 -75.65 HU 92 7 315
1887 NA NA 06:00:00 TS 29.47 -77.83 95 hurdat_atl 285 276 O____________O hurdat_atl AL061887 28.60 -78.80 HU 95 2 31.20 -75.90 HU 95 7 328
1887 NA NA 09:00:00 TS 29.80 -78.01 282 282 P____________P AL061887 28.98 -78.96 HU 97 3 31.43 -76.11 HU 97 8 343
1887 NA NA 12:00:00 TS 30.23 -78.10 100 hurdat_atl 296 271 O____________O hurdat_atl AL061887 29.50 -79.00 HU 100 3 31.70 -76.30 MH 100 10 353
1887 NA NA 15:00:00 TS 30.78 -78.16 263 216 P____________P AL061887 30.15 -78.97 HU 100 3 32.04 -76.52 MH 100 12 1
1887 NA NA 18:00:00 TS 31.40 -78.10 100 hurdat_atl 216 179 O____________O hurdat_atl AL061887 30.90 -78.80 HU 100 3 32.40 -76.70 MH 100 13 9
1887 NA NA 21:00:00 TS 32.03 -77.92 179 149 P____________P AL061887 31.66 -78.48 HU 100 3 32.77 -76.78 MH 100 13 19
1887 NA NA 1887-08-20 00:00:00 TS 32.63 -77.60 100 hurdat_atl 149 115 O____________O hurdat_atl AL061887 32.40 -78.00 HU 100 3 33.10 -76.80 MH 100 12 29
1887 NA NA 03:00:00 TS 33.09 -77.22 115 114 P____________P AL061887 33.01 -77.42 HU 102 3 33.27 -76.81 MH 102 12 38
1887 NA NA 06:00:00 TS 33.57 -76.73 105 hurdat_atl 119 69 O____________O hurdat_atl AL061887 33.60 -76.70 HU 105 3 33.50 -76.80 MH 105 13 38
1887 NA NA 09:00:00 TS 34.16 -76.23 62 49 P____________P AL061887 34.26 -75.89 HU 105 3 33.94 -76.90 MH 105 16 37
1887 NA NA 12:00:00 TS 34.87 -75.57 105 hurdat_atl 63 63 O____________O hurdat_atl AL061887 35.00 -75.00 HU 105 3 34.60 -76.70 MH 105 20 40
1887 NA NA 15:00:00 TS 35.71 -74.66 72 72 P____________P AL061887 35.84 -74.09 HU 105 3 35.45 -75.82 MH 105 24 43
1887 NA NA 18:00:00 TS 36.60 -73.60 105 hurdat_atl 190 190 O____________O hurdat_atl AL061887 36.70 -73.10 HU 105 3 36.40 -74.60 MH 105 969 24 45
1887 NA NA 21:00:00 TS 37.41 -72.53 248 248 P____________P AL061887 37.46 -72.04 HU 102 3 37.31 -73.51 MH 102 24 48
1887 NA NA 1887-08-21 00:00:00 TS 38.20 -71.37 100 hurdat_atl 289 281 O____________O hurdat_atl AL061887 38.20 -70.90 HU 100 3 38.20 -72.30 MH 100 25 50
1887 NA NA 03:00:00 TS 39.05 -70.06 282 234 P____________P AL061887 39.02 -69.67 HU 97 3 39.10 -70.84 MH 97 26 52
1887 NA NA 06:00:00 TS 39.83 -68.70 95 hurdat_atl 237 227 O____________O hurdat_atl AL061887 39.80 -68.40 HU 95 2 39.90 -69.30 HU 95 24 54
1887 NA NA 09:00:00 TS 40.46 -67.50 247 247 P____________P AL061887 40.44 -67.31 HU 92 2 40.50 -67.88 HU 92 23 59
1887 NA NA 12:00:00 TS 41.00 -66.17 90 hurdat_atl 281 227 O____________O hurdat_atl AL061887 41.00 -66.00 HU 90 2 41.00 -66.50 HU 90 25 65
1887 NA NA 15:00:00 TS 41.52 -64.46 231 223 P____________P AL061887 41.53 -64.14 HU 85 2 41.51 -65.10 HU 85 29 70
1887 NA NA 18:00:00 TS 42.00 -62.57 80 hurdat_atl 268 268 O____________O hurdat_atl AL061887 42.00 -62.00 HU 80 1 42.00 -63.70 HU 80 29 72
1887 NA NA 21:00:00 TS 42.45 -60.69 303 296 P____________P AL061887 42.43 -59.86 HU 77 1 42.49 -62.36 HU 77 30 73
1887 NA NA 1887-08-22 00:00:00 TS 42.87 -58.73 75 hurdat_atl 319 319 O____________O hurdat_atl AL061887 42.80 -57.70 HU 75 1 43.00 -60.80 HU 75 971 30 75
1887 NA NA 03:00:00 TS 43.24 -56.69 394 344 P____________P AL061887 43.11 -55.63 HU 72 1 43.50 -58.82 HU 72 31 76
1887 NA NA 06:00:00 TS 43.60 -54.57 70 hurdat_atl 342 300 O____________O hurdat_atl AL061887 43.40 -53.60 HU 70 1 44.00 -56.50 HU 70 32 77
1887 NA NA 09:00:00 TS 43.95 -52.32 297 297 P____________P AL061887 43.67 -51.53 HU 70 1 44.50 -53.88 HU 70 33 77
1887 NA NA 12:00:00 MX 44.33 -50.10 70 hurdat_atl 351 348 O____________O hurdat_atl AL061887 44.00 -49.50 EX 70 -4 45.00 -51.30 HU 70 31 75
1887 NA NA 15:00:00 MX 44.77 -48.06 438 438 P____________P AL061887 44.41 -47.51 EX 72 -4 45.49 -49.16 HU 72 30 72
1887 NA NA 18:00:00 MX 45.27 -46.13 75 hurdat_atl 553 553 O____________O hurdat_atl AL061887 44.90 -45.60 EX 75 -4 46.00 -47.20 HU 75 29 70
1887 NA NA 21:00:00 MX 45.76 -44.22 665 665 P____________P AL061887 45.39 -43.76 EX 72 -4 46.50 -45.15 HU 72 28 68
1887 NA NA 1887-08-23 00:00:00 ET 46.33 -42.37 70 hurdat_atl 782 782 O____________O hurdat_atl AL061887 46.00 -42.00 EX 70 -4 47.00 -43.10 EX 70 28 64
1887 NA NA 03:00:00 ET 47.01 -40.55 910 910 P____________P AL061887 46.77 -40.30 EX 70 -4 47.50 -41.05 EX 70 28 61
1887 NA NA 06:00:00 ET 47.73 -38.73 70 hurdat_atl 1036 1036 O____________O hurdat_atl AL061887 47.60 -38.60 EX 70 -4 48.00 -39.00 EX 70 28 61
1887 NA NA 09:00:00 ET 48.36 -36.92 1166 1166 P____________P AL061887 48.29 -36.91 EX 70 -4 48.50 -36.95 EX 70 28 63
1887 NA NA 12:00:00 ET 49.00 -34.96 70 972 hurdat_atl 1304 1304 O____________O hurdat_atl AL061887 49.00 -35.00 EX 70 972 -4 49.00 -34.90 EX 70 972 30 65
1887 NA NA 15:00:00 ET 49.64 -32.73 1335 1327 P____________P AL061887 49.79 -32.66 EX 70 -4 49.50 -32.80 EX 70 32 67
1887 NA NA 18:00:00 ET 50.24 -30.42 70 hurdat_atl 1354 1267 O____________O hurdat_atl AL061887 50.60 -30.00 EX 70 -4 50.00 -30.70 EX 70 28 72
1887 NA NA 21:00:00 ET 50.51 -28.61 1261 1111 _____________P AL061887 EX -4 50.51 -28.61 EX 65 26 73
1887 NA NA 1887-08-24 00:00:00 ET 51.00 -26.50 1105 _____________O -1 51.00 -26.50 EX 60 28 70